createdAt,value
2017-11-24T00:00:27.024Z,100484.66
2017-11-24T00:02:54.637Z,100485.06
2017-11-24T00:05:22.306Z,100490.46
2017-11-24T00:07:50.022Z,100487.45
2017-11-24T00:10:17.686Z,100490.05
2017-11-24T00:12:45.318Z,100493.81
2017-11-24T00:15:13.047Z,100499.80
2017-11-24T00:17:40.728Z,100501.20
2017-11-24T00:20:08.436Z,100506.59
2017-11-24T00:22:36.093Z,100504.16
2017-11-24T00:25:03.712Z,100503.44
2017-11-24T00:27:31.373Z,100508.11
2017-11-24T00:29:59.980Z,100503.01
2017-11-24T00:32:27.605Z,100495.53
2017-11-24T00:34:55.277Z,100495.91
2017-11-24T00:37:22.996Z,100500.55
2017-11-24T00:39:50.677Z,100497.14
2017-11-24T00:42:18.292Z,100498.56
2017-11-24T00:44:45.949Z,100497.12
2017-11-24T00:47:13.712Z,100499.81
2017-11-24T00:49:41.376Z,100492.82
2017-11-24T00:52:09.097Z,100491.03
2017-11-24T00:54:36.713Z,100490.91
2017-11-24T00:57:04.388Z,100488.42
2017-11-24T00:59:32.120Z,100480.13
2017-11-24T01:01:59.723Z,100483.42
2017-11-24T01:04:27.478Z,100488.28
2017-11-24T01:06:55.229Z,100485.52
2017-11-24T01:09:22.839Z,100488.75
2017-11-24T01:11:50.450Z,100488.48
2017-11-24T01:14:18.176Z,100487.72
2017-11-24T01:16:45.785Z,100492.09
2017-11-24T01:19:13.388Z,100492.69
2017-11-24T01:21:41.076Z,100494.67
2017-11-24T01:24:08.685Z,100492.77
2017-11-24T01:26:36.300Z,100484.77
2017-11-24T01:29:04.076Z,100489.98
2017-11-24T01:31:31.777Z,100496.97
2017-11-24T01:33:59.380Z,100489.72
2017-11-24T01:36:27.049Z,100486.33
2017-11-24T01:38:54.660Z,100490.52
2017-11-24T01:41:22.281Z,100493.40
2017-11-24T01:43:49.993Z,100492.01
2017-11-24T01:46:17.613Z,100490.80
2017-11-24T01:48:45.232Z,100492.13
2017-11-24T01:51:12.916Z,100492.99
2017-11-24T01:53:40.524Z,100490.45
2017-11-24T01:56:08.230Z,100494.73
2017-11-24T01:58:35.917Z,100490.55
2017-11-24T02:01:03.573Z,100494.56
2017-11-24T02:03:31.208Z,100495.14
2017-11-24T02:05:58.871Z,100498.89
2017-11-24T02:08:26.600Z,100498.45
2017-11-24T02:10:54.220Z,100493.80
2017-11-24T02:13:21.939Z,100500.39
2017-11-24T02:15:49.609Z,100496.45
2017-11-24T02:18:17.216Z,100499.59
2017-11-24T02:20:44.895Z,100500.38
2017-11-24T02:23:12.608Z,100500.59
2017-11-24T02:25:40.313Z,100498.75
2017-11-24T02:28:08.192Z,100502.14
2017-11-24T02:30:35.849Z,100509.02
2017-11-24T02:33:03.540Z,100509.50
2017-11-24T02:35:31.197Z,100511.83
2017-11-24T02:37:58.817Z,100507.81
2017-11-24T02:40:26.494Z,100516.65
2017-11-24T02:42:54.156Z,100524.95
2017-11-24T02:45:21.844Z,100518.16
2017-11-24T02:47:49.459Z,100523.00
2017-11-24T02:50:17.176Z,100523.73
2017-11-24T02:52:44.833Z,100537.47
2017-11-24T02:55:12.501Z,100530.12
2017-11-24T02:57:40.200Z,100526.21
2017-11-24T03:00:07.872Z,100527.12
2017-11-24T03:02:35.540Z,100522.40
2017-11-24T03:05:03.257Z,100520.83
2017-11-24T03:07:30.920Z,100524.82
2017-11-24T03:09:58.636Z,100524.52
2017-11-24T03:12:26.356Z,100517.13
2017-11-24T03:14:54.020Z,100524.03
2017-11-24T03:17:21.635Z,100524.55
2017-11-24T03:19:49.296Z,100521.48
2017-11-24T03:22:16.968Z,100519.64
2017-11-24T03:24:44.572Z,100515.52
2017-11-24T03:27:12.264Z,100515.43
2017-11-24T03:29:39.872Z,100511.91
2017-11-24T03:32:07.544Z,100514.70
2017-11-24T03:34:35.257Z,100516.02
2017-11-24T03:37:02.871Z,100513.20
2017-11-24T03:39:30.476Z,100519.34
2017-11-24T03:41:58.147Z,100516.85
2017-11-24T03:44:25.814Z,100514.67
2017-11-24T03:46:53.494Z,100511.00
2017-11-24T03:49:21.172Z,100515.10
2017-11-24T03:51:48.781Z,100513.95
2017-11-24T03:54:16.452Z,100509.91
2017-11-24T03:56:44.110Z,100509.36
2017-11-24T03:59:11.776Z,100514.83
2017-11-24T04:01:39.496Z,100511.67
2017-11-24T04:04:07.246Z,100509.97
2017-11-24T04:06:34.865Z,100505.20
2017-11-24T04:09:02.540Z,100508.95
2017-11-24T04:11:30.272Z,100502.89
2017-11-24T04:13:57.996Z,100504.91
2017-11-24T04:16:25.676Z,100497.72
2017-11-24T04:18:53.457Z,100494.56
2017-11-24T04:21:21.112Z,100499.09
2017-11-24T04:23:48.800Z,100496.06
2017-11-24T04:26:16.549Z,100499.11
2017-11-24T04:28:44.217Z,100504.80
2017-11-24T04:31:11.829Z,100497.89
2017-11-24T04:33:39.544Z,100498.55
2017-11-24T04:36:07.164Z,100498.99
2017-11-24T04:38:34.773Z,100502.59
2017-11-24T04:41:02.468Z,100500.98
2017-11-24T04:43:30.204Z,100504.19
2017-11-24T04:45:57.819Z,100505.31
2017-11-24T04:48:25.475Z,100505.86
2017-11-24T04:50:53.080Z,100500.41
2017-11-24T04:53:20.764Z,100498.48
2017-11-24T04:55:48.420Z,100496.05
2017-11-24T04:58:16.084Z,100499.98
2017-11-24T05:00:43.761Z,100492.50
2017-11-24T05:03:11.476Z,100495.47
2017-11-24T05:05:39.088Z,100490.38
2017-11-24T05:08:06.763Z,100491.65
2017-11-24T05:10:34.490Z,100484.83
2017-11-24T05:13:02.105Z,100491.78
2017-11-24T05:15:29.715Z,100489.77
2017-11-24T05:17:57.444Z,100483.02
2017-11-24T05:20:25.136Z,100488.13
2017-11-24T05:22:52.831Z,100489.89
2017-11-24T05:25:20.590Z,100485.95
2017-11-24T05:27:48.224Z,100490.85
2017-11-24T05:30:15.890Z,100494.67
2017-11-24T05:32:43.553Z,100498.77
2017-11-24T05:35:11.160Z,100496.84
2017-11-24T05:37:38.772Z,100498.97
2017-11-24T05:40:06.483Z,100498.97
2017-11-24T05:42:34.157Z,100507.79
2017-11-24T05:45:01.820Z,100506.64
2017-11-24T05:47:29.480Z,100514.22
2017-11-24T05:49:57.080Z,100517.72
2017-11-24T05:52:24.741Z,100519.49
2017-11-24T05:54:52.457Z,100524.31
2017-11-24T05:57:20.125Z,100520.73
2017-11-24T05:59:47.784Z,100532.66
2017-11-24T06:02:15.533Z,100530.84
2017-11-24T06:04:43.132Z,100535.01
2017-11-24T06:07:10.831Z,100536.42
2017-11-24T06:09:38.504Z,100533.81
2017-11-24T06:12:06.115Z,100529.59
2017-11-24T06:14:33.740Z,100528.20
2017-11-24T06:17:01.405Z,100531.67
2017-11-24T06:19:29.032Z,100531.79
2017-11-24T06:21:56.636Z,100530.88
2017-11-24T06:24:24.300Z,100533.22
2017-11-24T06:26:51.908Z,100534.13
2017-11-24T06:29:19.512Z,100539.07
2017-11-24T06:31:47.184Z,100539.59
2017-11-24T06:34:14.792Z,100531.23
2017-11-24T06:36:42.454Z,100538.18
2017-11-24T06:39:10.223Z,100537.05
2017-11-24T06:41:37.832Z,100538.81
2017-11-24T06:44:05.437Z,100532.97
2017-11-24T06:46:33.083Z,100546.63
2017-11-24T06:49:00.691Z,100545.30
2017-11-24T06:51:28.299Z,100553.68
2017-11-24T06:53:56.032Z,100549.47
2017-11-24T06:56:23.632Z,100549.27
2017-11-24T06:58:51.236Z,100550.44
2017-11-24T07:01:18.903Z,100546.22
2017-11-24T07:03:46.564Z,100548.71
2017-11-24T07:06:14.167Z,100549.13
2017-11-24T07:08:41.832Z,100559.06
2017-11-24T07:11:09.468Z,100554.46
2017-11-24T07:13:37.074Z,100554.52
2017-11-24T07:16:04.846Z,100557.19
2017-11-24T07:18:32.528Z,100564.42
2017-11-24T07:21:00.149Z,100559.22
2017-11-24T07:23:27.808Z,100564.20
2017-11-24T07:25:55.420Z,100564.53
2017-11-24T07:28:23.028Z,100568.52
2017-11-24T07:30:50.760Z,100562.52
2017-11-24T07:33:18.499Z,100566.70
2017-11-24T07:35:46.104Z,100561.63
2017-11-24T07:38:14.143Z,100566.00
2017-11-24T07:40:41.765Z,100559.64
2017-11-24T07:43:09.424Z,100559.23
2017-11-24T07:45:37.154Z,100558.03
2017-11-24T07:48:04.764Z,100564.81
2017-11-24T07:50:32.376Z,100560.00
2017-11-24T07:53:00.093Z,100559.73
2017-11-24T07:55:27.765Z,100564.35
2017-11-24T07:57:55.372Z,100563.97
2017-11-24T08:00:23.036Z,100555.84
2017-11-24T08:02:50.702Z,100556.78
2017-11-24T08:05:18.311Z,100559.69
2017-11-24T08:07:45.977Z,100555.33
2017-11-24T08:10:13.588Z,100552.88
2017-11-24T08:12:41.192Z,100558.27
2017-11-24T08:15:08.852Z,100566.43
2017-11-24T08:17:36.452Z,100571.65
2017-11-24T08:20:04.116Z,100566.48
2017-11-24T08:22:31.782Z,100567.30
2017-11-24T08:24:59.399Z,100565.99
2017-11-24T08:27:27.076Z,100569.11
2017-11-24T08:29:54.797Z,100560.87
2017-11-24T08:32:22.407Z,100562.47
2017-11-24T08:34:50.017Z,100558.66
2017-11-24T08:37:17.732Z,100567.06
2017-11-24T08:39:45.418Z,100567.86
2017-11-24T08:42:13.027Z,100560.53
2017-11-24T08:44:40.756Z,100560.85
2017-11-24T08:47:13.968Z,100556.16
2017-11-24T08:49:47.603Z,100547.12
2017-11-24T08:52:15.208Z,100540.12
2017-11-24T08:54:42.882Z,100539.59
2017-11-24T08:57:10.550Z,100537.66
2017-11-24T08:59:38.176Z,100537.59
2017-11-24T09:02:05.805Z,100535.94
2017-11-24T09:04:33.464Z,100527.50
2017-11-24T09:07:01.079Z,100520.72
2017-11-24T09:09:28.686Z,100526.08
2017-11-24T09:11:56.395Z,100520.39
2017-11-24T09:14:24.057Z,100523.81
2017-11-24T09:16:51.663Z,100518.41
2017-11-24T09:19:19.389Z,100522.77
2017-11-24T09:21:47.064Z,100514.45
2017-11-24T09:24:14.676Z,100513.25
2017-11-24T09:26:42.390Z,100510.70
2017-11-24T09:29:10.006Z,100506.02
2017-11-24T09:31:37.656Z,100512.77
2017-11-24T09:34:05.365Z,100513.91
2017-11-24T09:36:32.984Z,100503.66
2017-11-24T09:39:00.604Z,100501.58
2017-11-24T09:41:28.361Z,100513.66
2017-11-24T09:43:56.000Z,100520.94
2017-11-24T09:46:23.687Z,100517.20
2017-11-24T09:48:51.362Z,100515.59
2017-11-24T09:51:18.972Z,100512.94
2017-11-24T09:53:46.640Z,100509.95
2017-11-24T09:56:14.412Z,100520.42
2017-11-24T09:58:42.077Z,100505.06
2017-11-24T10:01:09.745Z,100501.87
2017-11-24T10:03:37.412Z,100498.88
2017-11-24T10:06:05.072Z,100502.14
2017-11-24T10:08:32.753Z,100501.45
2017-11-24T10:11:00.488Z,100502.03
2017-11-24T10:13:28.153Z,100494.37
2017-11-24T10:15:55.809Z,100492.08
2017-11-24T10:18:23.499Z,100486.16
2017-11-24T10:20:56.708Z,100496.92
2017-11-24T10:23:24.403Z,100497.88
2017-11-24T10:25:52.077Z,100491.77
2017-11-24T10:28:19.684Z,100490.06
2017-11-24T10:30:47.338Z,100493.08
2017-11-24T10:33:14.948Z,100502.16
2017-11-24T10:35:42.559Z,100502.13
2017-11-24T10:38:10.268Z,100507.66
2017-11-24T10:40:37.932Z,100509.54
2017-11-24T10:43:05.627Z,100507.27
2017-11-24T10:45:33.331Z,100505.25
2017-11-24T10:48:00.936Z,100501.25
2017-11-24T10:50:28.595Z,100504.80
2017-11-24T10:52:56.320Z,100504.87
2017-11-24T10:55:23.920Z,100509.62
2017-11-24T10:57:51.575Z,100507.64
2017-11-24T11:00:19.285Z,100506.31
2017-11-24T11:02:46.948Z,100505.05
2017-11-24T11:05:14.548Z,100506.34
2017-11-24T11:07:42.302Z,100505.84
2017-11-24T11:10:09.961Z,100503.64
2017-11-24T11:12:37.627Z,100501.09
2017-11-24T11:15:05.333Z,100500.39
2017-11-24T11:17:32.991Z,100492.74
2017-11-24T11:20:00.653Z,100497.23
2017-11-24T11:22:28.308Z,100493.52
2017-11-24T11:24:55.969Z,100495.20
2017-11-24T11:27:23.635Z,100497.87
2017-11-24T11:29:51.311Z,100505.13
2017-11-24T11:32:18.932Z,100502.28
2017-11-24T11:34:46.651Z,100505.55
2017-11-24T11:37:14.349Z,100503.86
2017-11-24T11:39:42.008Z,100507.53
2017-11-24T11:42:09.616Z,100507.63
2017-11-24T11:44:37.272Z,100506.14
2017-11-24T11:47:04.937Z,100507.52
2017-11-24T11:49:32.581Z,100507.34
2017-11-24T11:52:00.252Z,100504.18
2017-11-24T11:54:27.936Z,100505.71
2017-11-24T11:56:55.548Z,100505.25
2017-11-24T11:59:23.214Z,100500.62
2017-11-24T12:01:50.892Z,100505.05
2017-11-24T12:04:18.495Z,100497.09
2017-11-24T12:06:46.165Z,100499.13
2017-11-24T12:09:13.772Z,100501.48
2017-11-24T12:11:41.443Z,100504.83
2017-11-24T12:14:09.152Z,100508.73
2017-11-24T12:16:36.760Z,100514.99
2017-11-24T12:19:04.421Z,100516.57
2017-11-24T12:21:32.080Z,100517.26
2017-11-24T12:23:59.743Z,100516.41
2017-11-24T12:26:27.409Z,100515.45
2017-11-24T12:28:55.059Z,100513.67
2017-11-24T12:31:22.724Z,100513.68
2017-11-24T12:33:50.344Z,100515.03
2017-11-24T12:36:18.087Z,100515.09
2017-11-24T12:38:45.744Z,100515.57
2017-11-24T12:41:13.348Z,100514.67
2017-11-24T12:43:41.012Z,100513.78
2017-11-24T12:46:08.612Z,100510.66
2017-11-24T12:48:36.216Z,100511.81
2017-11-24T12:51:03.868Z,100508.63
2017-11-24T12:53:31.577Z,100511.30
2017-11-24T12:55:59.200Z,100516.80
2017-11-24T12:58:26.866Z,100516.86
2017-11-24T13:00:54.469Z,100523.69
2017-11-24T13:03:22.076Z,100523.56
2017-11-24T13:05:49.740Z,100527.17
2017-11-24T13:08:17.336Z,100527.72
2017-11-24T13:10:44.945Z,100526.39
2017-11-24T13:13:12.592Z,100532.16
2017-11-24T13:15:40.212Z,100532.14
2017-11-24T13:18:07.872Z,100532.94
2017-11-24T13:20:35.525Z,100531.05
2017-11-24T13:23:03.124Z,100536.41
2017-11-24T13:25:30.788Z,100538.77
2017-11-24T13:27:58.524Z,100538.00
2017-11-24T13:30:26.139Z,100534.73
2017-11-24T13:32:53.744Z,100536.63
2017-11-24T13:35:21.468Z,100532.97
2017-11-24T13:37:49.072Z,100535.91
2017-11-24T13:40:16.680Z,100533.02
2017-11-24T13:42:44.372Z,100533.13
2017-11-24T13:45:12.048Z,100536.41
2017-11-24T13:47:39.656Z,100541.70
2017-11-24T13:50:07.379Z,100532.39
2017-11-24T13:52:35.092Z,100541.45
2017-11-24T13:55:02.693Z,100531.66
2017-11-24T13:57:30.347Z,100536.45
2017-11-24T13:59:58.012Z,100537.58
2017-11-24T14:02:25.680Z,100539.48
2017-11-24T14:04:53.460Z,100537.11
2017-11-24T14:07:21.127Z,100534.84
2017-11-24T14:09:48.732Z,100534.58
2017-11-24T14:12:16.503Z,100535.72
2017-11-24T14:14:44.173Z,100541.57
2017-11-24T14:17:11.779Z,100544.69
2017-11-24T14:19:39.508Z,100545.79
2017-11-24T14:22:07.113Z,100542.50
2017-11-24T14:24:34.776Z,100545.58
2017-11-24T14:27:02.461Z,100539.72
2017-11-24T14:29:30.068Z,100544.77
2017-11-24T14:31:57.680Z,100544.57
2017-11-24T14:34:25.344Z,100546.70
2017-11-24T14:36:52.949Z,100540.58
2017-11-24T14:39:20.617Z,100547.70
2017-11-24T14:41:48.276Z,100548.06
2017-11-24T14:44:15.891Z,100552.08
2017-11-24T14:46:43.573Z,100547.08
2017-11-24T14:49:11.296Z,100553.92
2017-11-24T14:51:39.420Z,100558.84
2017-11-24T14:54:07.110Z,100557.58
2017-11-24T14:56:34.768Z,100560.17
2017-11-24T14:59:02.441Z,100557.48
2017-11-24T15:01:30.116Z,100560.58
2017-11-24T15:03:57.787Z,100563.34
2017-11-24T15:06:25.395Z,100564.47
2017-11-24T15:08:53.009Z,100566.21
2017-11-24T15:11:20.679Z,100563.09
2017-11-24T15:13:48.285Z,100569.14
2017-11-24T15:16:15.905Z,100568.11
2017-11-24T15:18:43.563Z,100569.22
2017-11-24T15:21:11.190Z,100565.98
2017-11-24T15:23:38.928Z,100567.19
2017-11-24T15:26:06.644Z,100568.27
2017-11-24T15:28:34.252Z,100578.05
2017-11-24T15:31:01.880Z,100576.91
2017-11-24T15:33:29.543Z,100572.67
2017-11-24T15:35:57.214Z,100575.21
2017-11-24T15:38:24.820Z,100582.02
2017-11-24T15:40:52.549Z,100576.96
2017-11-24T15:43:20.276Z,100579.14
2017-11-24T15:45:47.905Z,100583.70
2017-11-24T15:48:15.640Z,100588.50
2017-11-24T15:50:43.313Z,100581.55
2017-11-24T15:53:10.921Z,100583.51
2017-11-24T15:55:38.577Z,100577.59
2017-11-24T15:58:06.180Z,100587.34
2017-11-24T16:00:33.782Z,100584.86
2017-11-24T16:03:01.505Z,100584.93
2017-11-24T16:05:29.115Z,100577.04
2017-11-24T16:07:56.724Z,100580.00
2017-11-24T16:10:24.455Z,100586.83
2017-11-24T16:12:52.122Z,100587.86
2017-11-24T16:15:19.788Z,100586.06
2017-11-24T16:17:47.541Z,100585.93
2017-11-24T16:20:15.158Z,100592.00
2017-11-24T16:22:42.771Z,100596.98
2017-11-24T16:25:10.428Z,100594.95
2017-11-24T16:27:38.037Z,100590.97
2017-11-24T16:30:05.650Z,100586.88
2017-11-24T16:32:33.369Z,100593.17
2017-11-24T16:35:01.005Z,100591.64
2017-11-24T16:37:28.615Z,100593.76
2017-11-24T16:39:56.308Z,100589.13
2017-11-24T16:42:23.920Z,100591.28
2017-11-24T16:44:51.589Z,100588.09
2017-11-24T16:47:19.276Z,100589.23
2017-11-24T16:49:46.884Z,100586.13
2017-11-24T16:52:14.573Z,100587.70
2017-11-24T16:54:42.354Z,100581.80
2017-11-24T16:57:10.900Z,100583.63
2017-11-24T16:59:38.517Z,100585.64
2017-11-24T17:02:06.240Z,100576.84
2017-11-24T17:04:33.859Z,100583.20
2017-11-24T17:07:01.530Z,100586.79
2017-11-24T17:09:29.203Z,100583.01
2017-11-24T17:11:56.820Z,100594.45
2017-11-24T17:14:24.444Z,100586.36
2017-11-24T17:16:52.160Z,100583.56
2017-11-24T17:19:19.764Z,100583.59
2017-11-24T17:21:47.452Z,100585.86
2017-11-24T17:24:15.148Z,100584.30
2017-11-24T17:26:42.777Z,100580.52
2017-11-24T17:29:10.400Z,100581.17
2017-11-24T17:31:38.077Z,100584.47
2017-11-24T17:34:05.700Z,100581.20
2017-11-24T17:36:33.316Z,100588.41
2017-11-24T17:39:01.035Z,100590.23
2017-11-24T17:41:28.699Z,100590.13
2017-11-24T17:43:56.393Z,100587.75
2017-11-24T17:46:24.153Z,100590.23
2017-11-24T17:48:51.775Z,100586.41
2017-11-24T17:51:19.399Z,100593.33
2017-11-24T17:53:47.119Z,100586.48
2017-11-24T17:56:14.732Z,100586.54
2017-11-24T17:58:42.348Z,100583.28
2017-11-24T18:01:10.012Z,100582.59
2017-11-24T18:03:37.640Z,100579.25
2017-11-24T18:06:05.253Z,100583.88
2017-11-24T18:08:32.940Z,100588.17
2017-11-24T18:11:00.548Z,100586.09
2017-11-24T18:13:28.156Z,100587.20
2017-11-24T18:15:55.871Z,100588.48
2017-11-24T18:18:23.552Z,100589.94
2017-11-24T18:20:51.216Z,100595.27
2017-11-24T18:23:18.993Z,100592.98
2017-11-24T18:25:46.718Z,100604.47
2017-11-24T18:28:14.467Z,100613.75
2017-11-24T18:30:42.202Z,100620.00
2017-11-24T18:33:09.868Z,100625.64
2017-11-24T18:35:37.516Z,100626.42
2017-11-24T18:38:05.270Z,100632.45
2017-11-24T18:40:32.948Z,100626.50
2017-11-24T18:43:00.626Z,100629.47
2017-11-24T18:45:28.361Z,100621.27
2017-11-24T18:47:56.081Z,100620.75
2017-11-24T18:50:23.755Z,100622.06
2017-11-24T18:52:51.525Z,100630.39
2017-11-24T18:55:19.193Z,100633.11
2017-11-24T18:57:46.816Z,100629.72
2017-11-24T19:00:14.536Z,100631.11
2017-11-24T19:02:42.201Z,100633.78
2017-11-24T19:05:09.808Z,100632.69
2017-11-24T19:07:37.535Z,100634.25
2017-11-24T19:10:05.148Z,100634.20
2017-11-24T19:12:32.808Z,100639.73
2017-11-24T19:15:00.532Z,100643.84
2017-11-24T19:17:28.136Z,100643.59
2017-11-24T19:19:55.768Z,100644.82
2017-11-24T19:22:23.491Z,100646.47
2017-11-24T19:24:51.100Z,100649.55
2017-11-24T19:27:18.829Z,100649.12
2017-11-24T19:29:46.500Z,100644.02
2017-11-24T19:32:14.211Z,100656.69
2017-11-24T19:34:41.905Z,100647.93
2017-11-24T19:37:09.582Z,100649.84
2017-11-24T19:39:37.192Z,100654.77
2017-11-24T19:42:04.904Z,100653.91
2017-11-24T19:44:32.591Z,100661.94
2017-11-24T19:47:00.259Z,100664.84
2017-11-24T19:49:27.868Z,100668.79
2017-11-24T19:51:55.592Z,100660.84
2017-11-24T19:54:23.311Z,100664.06
2017-11-24T19:56:50.938Z,100660.45
2017-11-24T19:59:18.604Z,100670.84
2017-11-24T20:01:46.335Z,100669.30
2017-11-24T20:04:13.948Z,100671.48
2017-11-24T20:06:41.603Z,100679.70
2017-11-24T20:09:09.216Z,100684.77
2017-11-24T20:11:36.924Z,100692.02
2017-11-24T20:14:04.667Z,100697.53
2017-11-24T20:16:32.273Z,100692.44
2017-11-24T20:18:59.891Z,100695.69
2017-11-24T20:21:27.612Z,100689.36
2017-11-24T20:23:55.225Z,100696.69
2017-11-24T20:26:22.850Z,100696.50
2017-11-24T20:28:50.504Z,100702.32
2017-11-24T20:31:18.108Z,100701.55
2017-11-24T20:33:45.710Z,100692.49
2017-11-24T20:36:13.388Z,100696.08
2017-11-24T20:38:41.003Z,100692.08
2017-11-24T20:41:08.609Z,100695.29
2017-11-24T20:43:36.355Z,100699.94
2017-11-24T20:46:04.020Z,100702.38
2017-11-24T20:48:31.648Z,100708.72
2017-11-24T20:50:59.303Z,100706.83
2017-11-24T20:53:26.972Z,100710.23
2017-11-24T20:55:54.636Z,100713.44
2017-11-24T20:58:22.356Z,100715.89
2017-11-24T21:00:49.973Z,100716.17
2017-11-24T21:03:17.580Z,100716.60
2017-11-24T21:05:45.300Z,100721.39
2017-11-24T21:08:12.980Z,100717.94
2017-11-24T21:10:40.640Z,100714.94
2017-11-24T21:13:08.387Z,100715.61
2017-11-24T21:15:36.062Z,100715.37
2017-11-24T21:18:03.723Z,100714.88
2017-11-24T21:20:31.484Z,100715.59
2017-11-24T21:22:59.124Z,100726.66
2017-11-24T21:25:26.747Z,100729.74
2017-11-24T21:27:54.505Z,100720.06
2017-11-24T21:30:22.108Z,100727.21
2017-11-24T21:32:49.781Z,100726.08
2017-11-24T21:35:17.440Z,100726.33
2017-11-24T21:37:45.043Z,100726.62
2017-11-24T21:40:12.644Z,100720.97
2017-11-24T21:42:40.301Z,100721.13
2017-11-24T21:45:07.912Z,100719.80
2017-11-24T21:47:35.526Z,100714.40
2017-11-24T21:50:03.183Z,100713.98
2017-11-24T21:52:30.852Z,100709.28
2017-11-24T21:54:58.558Z,100710.21
2017-11-24T21:57:26.208Z,100695.05
2017-11-24T21:59:53.872Z,100693.05
2017-11-24T22:02:21.545Z,100683.38
2017-11-24T22:04:49.200Z,100679.64
2017-11-24T22:07:16.874Z,100686.18
2017-11-24T22:09:44.480Z,100680.80
2017-11-24T22:12:12.129Z,100681.25
2017-11-24T22:14:39.796Z,100682.45
2017-11-24T22:17:07.409Z,100686.64
2017-11-24T22:19:35.072Z,100684.16
2017-11-24T22:22:02.739Z,100680.87
2017-11-24T22:24:30.350Z,100681.10
2017-11-24T22:26:58.047Z,100673.11
2017-11-24T22:29:25.711Z,100677.34
2017-11-24T22:31:53.376Z,100681.16
2017-11-24T22:34:21.096Z,100681.92
2017-11-24T22:36:48.754Z,100669.92
2017-11-24T22:39:16.420Z,100668.28
2017-11-24T22:41:44.087Z,100678.84
2017-11-24T22:44:11.757Z,100674.55
2017-11-24T22:46:39.424Z,100680.17
2017-11-24T22:49:07.084Z,100678.63
2017-11-24T22:51:34.689Z,100683.02
2017-11-24T22:54:02.292Z,100683.20
2017-11-24T22:56:29.944Z,100683.08
2017-11-24T22:58:57.608Z,100681.03
2017-11-24T23:01:25.302Z,100673.07
2017-11-24T23:03:53.014Z,100677.19
2017-11-24T23:06:20.620Z,100675.61
2017-11-24T23:08:48.237Z,100674.52
2017-11-24T23:11:15.979Z,100665.60
2017-11-24T23:13:43.584Z,100666.36
2017-11-24T23:16:11.244Z,100671.19
2017-11-24T23:18:38.900Z,100670.05
2017-11-24T23:21:06.508Z,100675.28
2017-11-24T23:23:34.124Z,100673.32
2017-11-24T23:26:01.804Z,100668.25
2017-11-24T23:28:29.415Z,100672.59
2017-11-24T23:30:57.081Z,100678.66
2017-11-24T23:33:24.776Z,100673.69
2017-11-24T23:35:52.440Z,100676.55
2017-11-24T23:38:20.052Z,100683.03
2017-11-24T23:40:47.720Z,100675.69
2017-11-24T23:43:15.380Z,100679.51
2017-11-24T23:45:42.979Z,100681.17
2017-11-24T23:48:10.640Z,100674.08
2017-11-24T23:50:38.239Z,100674.91
2017-11-24T23:53:05.908Z,100676.63
2017-11-24T23:55:33.614Z,100678.30
2017-11-24T23:58:01.224Z,100678.00
